sensor_id;sensor_type;location;lat;lon;timestamp;pressure;altitude;pressure_sealevel;temperature;humidity
26531;BME280;14201;43.188;24.160;2023-01-29T00:01:55;99939.97;;;3.39;93.02
26531;BME280;14201;43.188;24.160;2023-01-29T00:04:21;99936.94;;;3.44;92.91
26531;BME280;14201;43.188;24.160;2023-01-29T00:06:46;99943.00;;;3.45;92.53
26531;BME280;14201;43.188;24.160;2023-01-29T00:09:12;99936.72;;;3.41;92.80
26531;BME280;14201;43.188;24.160;2023-01-29T00:11:37;99944.53;;;3.31;92.88
26531;BME280;14201;43.188;24.160;2023-01-29T00:14:03;99943.31;;;3.26;94.13
26531;BME280;14201;43.188;24.160;2023-01-29T00:16:29;99945.09;;;3.27;93.23
26531;BME280;14201;43.188;24.160;2023-01-29T00:18:54;99948.22;;;3.23;93.74
26531;BME280;14201;43.188;24.160;2023-01-29T00:21:20;99948.22;;;3.23;94.14
26531;BME280;14201;43.188;24.160;2023-01-29T00:23:46;99947.66;;;3.27;94.07
26531;BME280;14201;43.188;24.160;2023-01-29T00:26:12;99952.94;;;3.06;94.57
26531;BME280;14201;43.188;24.160;2023-01-29T00:28:37;99957.56;;;2.88;96.03
26531;BME280;14201;43.188;24.160;2023-01-29T00:31:07;99963.06;;;3.15;95.16
26531;BME280;14201;43.188;24.160;2023-01-29T00:33:32;99959.28;;;3.22;93.72
26531;BME280;14201;43.188;24.160;2023-01-29T00:36:00;99952.47;;;3.22;93.68
26531;BME280;14201;43.188;24.160;2023-01-29T00:38:26;99956.19;;;3.26;93.50
26531;BME280;14201;43.188;24.160;2023-01-29T00:40:51;99957.63;;;3.22;93.75
26531;BME280;14201;43.188;24.160;2023-01-29T00:43:35;99956.47;;;3.19;93.74
26531;BME280;14201;43.188;24.160;2023-01-29T00:46:19;99953.03;;;3.18;93.52
26531;BME280;14201;43.188;24.160;2023-01-29T00:48:44;99952.34;;;3.21;93.55
26531;BME280;14201;43.188;24.160;2023-01-29T00:51:10;99954.13;;;3.22;93.62
26531;BME280;14201;43.188;24.160;2023-01-29T00:53:35;99956.06;;;3.24;93.75
26531;BME280;14201;43.188;24.160;2023-01-29T00:56:01;99957.94;;;3.27;93.65
26531;BME280;14201;43.188;24.160;2023-01-29T00:58:26;99956.63;;;3.32;92.85
26531;BME280;14201;43.188;24.160;2023-01-29T01:00:58;99959.22;;;3.32;92.66
26531;BME280;14201;43.188;24.160;2023-01-29T01:03:25;99956.63;;;3.32;93.01
26531;BME280;14201;43.188;24.160;2023-01-29T01:05:50;99968.00;;;3.24;92.80
26531;BME280;14201;43.188;24.160;2023-01-29T01:08:26;99965.44;;;3.24;92.94
26531;BME280;14201;43.188;24.160;2023-01-29T01:11:10;99967.47;;;3.28;92.38
26531;BME280;14201;43.188;24.160;2023-01-29T01:13:35;99970.19;;;3.07;93.33
26531;BME280;14201;43.188;24.160;2023-01-29T01:16:01;99974.03;;;3.12;94.25
26531;BME280;14201;43.188;24.160;2023-01-29T01:18:29;99964.38;;;3.10;94.01
26531;BME280;14201;43.188;24.160;2023-01-29T01:20:57;99973.94;;;3.23;94.13
26531;BME280;14201;43.188;24.160;2023-01-29T01:23:23;99977.09;;;3.30;92.27
26531;BME280;14201;43.188;24.160;2023-01-29T01:25:49;99973.06;;;3.22;92.58
26531;BME280;14201;43.188;24.160;2023-01-29T01:28:14;99975.38;;;3.19;93.46
26531;BME280;14201;43.188;24.160;2023-01-29T01:30:40;99974.91;;;3.13;93.60
26531;BME280;14201;43.188;24.160;2023-01-29T01:33:05;99971.63;;;3.04;93.52
26531;BME280;14201;43.188;24.160;2023-01-29T01:35:31;99978.50;;;3.15;93.37
26531;BME280;14201;43.188;24.160;2023-01-29T01:37:56;99976.81;;;3.15;93.17
26531;BME280;14201;43.188;24.160;2023-01-29T01:40:22;99976.59;;;3.12;93.25
26531;BME280;14201;43.188;24.160;2023-01-29T01:42:48;99976.66;;;3.24;92.30
26531;BME280;14201;43.188;24.160;2023-01-29T01:45:22;99982.44;;;3.22;91.94
26531;BME280;14201;43.188;24.160;2023-01-29T01:47:53;99968.63;;;3.09;93.40
26531;BME280;14201;43.188;24.160;2023-01-29T01:50:22;99974.78;;;3.11;93.04
26531;BME280;14201;43.188;24.160;2023-01-29T01:52:50;99978.75;;;3.18;92.57
26531;BME280;14201;43.188;24.160;2023-01-29T01:55:18;99979.19;;;3.12;92.89
26531;BME280;14201;43.188;24.160;2023-01-29T01:57:46;99983.72;;;3.05;93.44
26531;BME280;14201;43.188;24.160;2023-01-29T02:00:13;99982.47;;;3.00;93.58
26531;BME280;14201;43.188;24.160;2023-01-29T02:02:43;99980.78;;;3.00;94.10
26531;BME280;14201;43.188;24.160;2023-01-29T02:05:28;99982.03;;;3.05;93.66
26531;BME280;14201;43.188;24.160;2023-01-29T02:08:13;99977.38;;;3.11;93.76
26531;BME280;14201;43.188;24.160;2023-01-29T02:10:57;99979.00;;;2.99;93.86
26531;BME280;14201;43.188;24.160;2023-01-29T02:13:23;99984.38;;;3.02;93.97
26531;BME280;14201;43.188;24.160;2023-01-29T02:15:48;99984.63;;;3.05;93.99
26531;BME280;14201;43.188;24.160;2023-01-29T02:18:14;99986.09;;;3.13;93.25
26531;BME280;14201;43.188;24.160;2023-01-29T02:23:39;99992.47;;;3.07;93.28
26531;BME280;14201;43.188;24.160;2023-01-29T02:28:57;99991.66;;;3.08;93.18
26531;BME280;14201;43.188;24.160;2023-01-29T02:31:46;99994.63;;;3.12;92.82
26531;BME280;14201;43.188;24.160;2023-01-29T02:34:33;100001.50;;;3.02;93.15
26531;BME280;14201;43.188;24.160;2023-01-29T02:37:19;100001.09;;;2.85;93.84
26531;BME280;14201;43.188;24.160;2023-01-29T02:40:02;99999.16;;;2.83;94.62
26531;BME280;14201;43.188;24.160;2023-01-29T02:42:31;100002.50;;;2.82;95.08
26531;BME280;14201;43.188;24.160;2023-01-29T02:45:11;100003.06;;;2.78;95.93
26531;BME280;14201;43.188;24.160;2023-01-29T02:52:56;100000.47;;;2.78;95.81
26531;BME280;14201;43.188;24.160;2023-01-29T02:57:49;100003.75;;;2.87;95.55
26531;BME280;14201;43.188;24.160;2023-01-29T03:00:17;100010.78;;;2.78;95.24
26531;BME280;14201;43.188;24.160;2023-01-29T03:03:07;100005.91;;;2.70;96.50
26531;BME280;14201;43.188;24.160;2023-01-29T03:05:39;100005.16;;;2.39;97.47
26531;BME280;14201;43.188;24.160;2023-01-29T03:08:10;100003.66;;;2.21;98.75
26531;BME280;14201;43.188;24.160;2023-01-29T03:10:38;100009.34;;;2.49;98.96
26531;BME280;14201;43.188;24.160;2023-01-29T03:13:09;100010.09;;;2.48;98.26
26531;BME280;14201;43.188;24.160;2023-01-29T03:15:39;100009.00;;;2.66;97.84
26531;BME280;14201;43.188;24.160;2023-01-29T03:20:33;100014.22;;;2.78;96.16
26531;BME280;14201;43.188;24.160;2023-01-29T03:23:02;100014.50;;;2.71;95.95
26531;BME280;14201;43.188;24.160;2023-01-29T03:25:29;100008.84;;;2.75;95.89
26531;BME280;14201;43.188;24.160;2023-01-29T03:28:16;100013.38;;;2.67;96.90
26531;BME280;14201;43.188;24.160;2023-01-29T03:31:02;100012.94;;;2.73;96.42
26531;BME280;14201;43.188;24.160;2023-01-29T03:34:00;100015.75;;;2.54;97.67
26531;BME280;14201;43.188;24.160;2023-01-29T03:36:41;100023.34;;;2.52;97.06
26531;BME280;14201;43.188;24.160;2023-01-29T03:39:09;100020.47;;;2.60;98.42
26531;BME280;14201;43.188;24.160;2023-01-29T03:41:37;100022.53;;;2.64;97.17
26531;BME280;14201;43.188;24.160;2023-01-29T03:44:14;100022.94;;;2.58;97.70
26531;BME280;14201;43.188;24.160;2023-01-29T03:49:16;100014.00;;;2.43;99.18
26531;BME280;14201;43.188;24.160;2023-01-29T04:01:53;100014.31;;;2.58;97.78
26531;BME280;14201;43.188;24.160;2023-01-29T04:04:24;100015.09;;;2.56;97.78
26531;BME280;14201;43.188;24.160;2023-01-29T04:06:51;100012.69;;;2.48;98.37
26531;BME280;14201;43.188;24.160;2023-01-29T04:09:28;100021.78;;;2.54;98.34
26531;BME280;14201;43.188;24.160;2023-01-29T04:12:02;100018.28;;;2.64;97.24
26531;BME280;14201;43.188;24.160;2023-01-29T04:14:30;100021.00;;;2.55;97.74
26531;BME280;14201;43.188;24.160;2023-01-29T04:16:56;100027.56;;;2.62;98.11
26531;BME280;14201;43.188;24.160;2023-01-29T04:19:24;100026.75;;;2.63;97.75
26531;BME280;14201;43.188;24.160;2023-01-29T04:21:51;100023.16;;;2.61;97.42
26531;BME280;14201;43.188;24.160;2023-01-29T04:24:19;100025.31;;;2.45;98.30
26531;BME280;14201;43.188;24.160;2023-01-29T04:26:49;100016.16;;;2.48;98.02
26531;BME280;14201;43.188;24.160;2023-01-29T04:50:02;100037.44;;;2.58;97.69
26531;BME280;14201;43.188;24.160;2023-01-29T04:52:38;100031.41;;;2.57;97.58
26531;BME280;14201;43.188;24.160;2023-01-29T05:00:19;100041.84;;;2.59;97.37
26531;BME280;14201;43.188;24.160;2023-01-29T05:02:46;100040.81;;;2.56;97.18
26531;BME280;14201;43.188;24.160;2023-01-29T05:05:13;100044.53;;;2.50;97.91
26531;BME280;14201;43.188;24.160;2023-01-29T05:07:40;100051.44;;;2.61;97.67
26531;BME280;14201;43.188;24.160;2023-01-29T05:10:07;100054.16;;;2.63;97.01
26531;BME280;14201;43.188;24.160;2023-01-29T05:12:33;100050.81;;;2.64;96.42
26531;BME280;14201;43.188;24.160;2023-01-29T05:15:01;100051.72;;;2.64;96.69
26531;BME280;14201;43.188;24.160;2023-01-29T05:17:27;100049.38;;;2.67;96.35
26531;BME280;14201;43.188;24.160;2023-01-29T05:19:54;100049.97;;;2.75;96.11
26531;BME280;14201;43.188;24.160;2023-01-29T05:22:20;100051.19;;;2.68;96.88
26531;BME280;14201;43.188;24.160;2023-01-29T05:24:47;100056.53;;;2.71;96.34
26531;BME280;14201;43.188;24.160;2023-01-29T05:27:23;100059.66;;;2.67;96.51
26531;BME280;14201;43.188;24.160;2023-01-29T05:30:10;100064.97;;;2.59;97.40
26531;BME280;14201;43.188;24.160;2023-01-29T05:32:35;100063.25;;;2.69;97.10
26531;BME280;14201;43.188;24.160;2023-01-29T05:35:01;100068.81;;;2.64;96.69
26531;BME280;14201;43.188;24.160;2023-01-29T05:37:26;100061.47;;;2.68;97.53
26531;BME280;14201;43.188;24.160;2023-01-29T05:39:52;100074.28;;;2.79;96.43
26531;BME280;14201;43.188;24.160;2023-01-29T05:42:17;100074.53;;;2.71;96.60
26531;BME280;14201;43.188;24.160;2023-01-29T05:44:42;100078.72;;;2.59;96.58
26531;BME280;14201;43.188;24.160;2023-01-29T05:47:08;100075.47;;;2.62;97.58
26531;BME280;14201;43.188;24.160;2023-01-29T05:49:33;100085.63;;;2.70;97.08
26531;BME280;14201;43.188;24.160;2023-01-29T05:51:59;100082.78;;;2.78;96.50
26531;BME280;14201;43.188;24.160;2023-01-29T05:54:24;100084.28;;;2.86;95.73
26531;BME280;14201;43.188;24.160;2023-01-29T05:56:49;100086.06;;;2.87;95.67
26531;BME280;14201;43.188;24.160;2023-01-29T05:59:15;100099.66;;;2.96;95.34
26531;BME280;14201;43.188;24.160;2023-01-29T06:01:40;100103.97;;;2.75;95.54
26531;BME280;14201;43.188;24.160;2023-01-29T06:04:06;100094.22;;;2.81;95.69
26531;BME280;14201;43.188;24.160;2023-01-29T06:06:31;100104.06;;;2.87;95.75
26531;BME280;14201;43.188;24.160;2023-01-29T06:08:57;100104.06;;;2.87;94.96
26531;BME280;14201;43.188;24.160;2023-01-29T06:11:23;100107.03;;;2.91;96.10
26531;BME280;14201;43.188;24.160;2023-01-29T06:13:48;100106.53;;;2.85;95.78
26531;BME280;14201;43.188;24.160;2023-01-29T06:16:14;100109.06;;;2.95;94.87
26531;BME280;14201;43.188;24.160;2023-01-29T06:18:39;100109.31;;;2.99;93.85
26531;BME280;14201;43.188;24.160;2023-01-29T06:21:06;100116.88;;;3.07;93.99
26531;BME280;14201;43.188;24.160;2023-01-29T06:23:32;100113.47;;;3.19;92.85
26531;BME280;14201;43.188;24.160;2023-01-29T06:26:08;100117.53;;;3.27;92.51
26531;BME280;14201;43.188;24.160;2023-01-29T06:28:34;100126.63;;;3.11;93.00
26531;BME280;14201;43.188;24.160;2023-01-29T06:31:00;100132.78;;;3.13;92.86
26531;BME280;14201;43.188;24.160;2023-01-29T06:33:26;100130.06;;;3.22;92.87
26531;BME280;14201;43.188;24.160;2023-01-29T06:35:58;100139.81;;;3.26;92.23
26531;BME280;14201;43.188;24.160;2023-01-29T06:38:24;100141.84;;;3.08;93.39
26531;BME280;14201;43.188;24.160;2023-01-29T06:40:50;100142.53;;;3.18;93.26
26531;BME280;14201;43.188;24.160;2023-01-29T06:43:15;100142.31;;;3.14;93.62
26531;BME280;14201;43.188;24.160;2023-01-29T06:45:47;100138.88;;;3.04;94.48
26531;BME280;14201;43.188;24.160;2023-01-29T06:48:13;100148.28;;;3.03;95.16
26531;BME280;14201;43.188;24.160;2023-01-29T06:50:38;100149.81;;;3.01;95.14
26531;BME280;14201;43.188;24.160;2023-01-29T06:53:03;100158.69;;;3.05;95.45
26531;BME280;14201;43.188;24.160;2023-01-29T06:55:29;100156.84;;;3.14;95.21
26531;BME280;14201;43.188;24.160;2023-01-29T06:57:54;100164.75;;;3.27;94.20
26531;BME280;14201;43.188;24.160;2023-01-29T07:00:20;100173.69;;;3.21;94.09
26531;BME280;14201;43.188;24.160;2023-01-29T07:02:47;100171.09;;;3.21;94.95
26531;BME280;14201;43.188;24.160;2023-01-29T07:05:13;100171.34;;;3.24;94.94
26531;BME280;14201;43.188;24.160;2023-01-29T07:07:38;100172.28;;;3.14;94.90
26531;BME280;14201;43.188;24.160;2023-01-29T07:10:04;100174.56;;;3.21;95.27
26531;BME280;14201;43.188;24.160;2023-01-29T07:12:29;100177.53;;;3.26;94.66
26531;BME280;14201;43.188;24.160;2023-01-29T07:14:54;100174.63;;;3.43;93.68
26531;BME280;14201;43.188;24.160;2023-01-29T07:17:20;100181.31;;;3.63;91.83
26531;BME280;14201;43.188;24.160;2023-01-29T07:19:45;100180.38;;;3.51;91.63
26531;BME280;14201;43.188;24.160;2023-01-29T07:22:11;100184.78;;;3.42;92.44
26531;BME280;14201;43.188;24.160;2023-01-29T07:24:36;100182.09;;;3.40;92.63
26531;BME280;14201;43.188;24.160;2023-01-29T07:27:01;100188.13;;;3.41;92.67
26531;BME280;14201;43.188;24.160;2023-01-29T07:29:27;100179.16;;;3.35;92.71
26531;BME280;14201;43.188;24.160;2023-01-29T07:31:52;100180.91;;;3.14;93.58
26531;BME280;14201;43.188;24.160;2023-01-29T07:34:18;100180.38;;;3.19;94.87
26531;BME280;14201;43.188;24.160;2023-01-29T07:36:43;100180.09;;;3.26;94.13
26531;BME280;14201;43.188;24.160;2023-01-29T07:39:08;100188.09;;;3.19;94.42
26531;BME280;14201;43.188;24.160;2023-01-29T07:41:34;100189.66;;;3.17;95.39
26531;BME280;14201;43.188;24.160;2023-01-29T07:43:59;100183.34;;;3.13;94.83
26531;BME280;14201;43.188;24.160;2023-01-29T07:46:25;100193.59;;;3.23;95.66
26531;BME280;14201;43.188;24.160;2023-01-29T07:48:50;100188.09;;;3.19;94.79
26531;BME280;14201;43.188;24.160;2023-01-29T07:51:15;100197.38;;;3.17;95.55
26531;BME280;14201;43.188;24.160;2023-01-29T07:53:42;100197.88;;;3.23;95.72
26531;BME280;14201;43.188;24.160;2023-01-29T07:56:09;100205.22;;;3.18;96.41
26531;BME280;14201;43.188;24.160;2023-01-29T07:58:34;100205.84;;;3.26;96.44
26531;BME280;14201;43.188;24.160;2023-01-29T08:01:03;100205.53;;;3.33;96.09
26531;BME280;14201;43.188;24.160;2023-01-29T08:03:29;100211.84;;;3.37;96.82
26531;BME280;14201;43.188;24.160;2023-01-29T08:05:56;100208.97;;;3.44;95.65
26531;BME280;14201;43.188;24.160;2023-01-29T08:08:21;100206.41;;;3.44;95.93
26531;BME280;14201;43.188;24.160;2023-01-29T08:10:47;100214.34;;;3.47;96.49
26531;BME280;14201;43.188;24.160;2023-01-29T08:13:12;100217.38;;;3.31;96.30
26531;BME280;14201;43.188;24.160;2023-01-29T08:15:37;100221.47;;;3.39;96.32
26531;BME280;14201;43.188;24.160;2023-01-29T08:18:03;100217.53;;;3.54;95.95
26531;BME280;14201;43.188;24.160;2023-01-29T08:20:28;100225.88;;;3.62;94.45
26531;BME280;14201;43.188;24.160;2023-01-29T08:23:01;100223.72;;;3.57;94.12
26531;BME280;14201;43.188;24.160;2023-01-29T08:25:27;100226.06;;;3.53;94.22
26531;BME280;14201;43.188;24.160;2023-01-29T08:27:53;100225.53;;;3.58;94.34
26531;BME280;14201;43.188;24.160;2023-01-29T08:30:18;100221.59;;;3.41;95.48
26531;BME280;14201;43.188;24.160;2023-01-29T08:32:44;100229.50;;;3.32;96.58
26531;BME280;14201;43.188;24.160;2023-01-29T08:35:09;100229.63;;;3.33;97.32
26531;BME280;14201;43.188;24.160;2023-01-29T08:37:34;100231.75;;;3.49;97.29
26531;BME280;14201;43.188;24.160;2023-01-29T08:40:00;100228.34;;;3.61;96.14
26531;BME280;14201;43.188;24.160;2023-01-29T08:42:25;100237.81;;;3.72;94.47
26531;BME280;14201;43.188;24.160;2023-01-29T08:44:51;100241.47;;;3.64;95.30
26531;BME280;14201;43.188;24.160;2023-01-29T08:47:16;100238.78;;;3.84;94.45
26531;BME280;14201;43.188;24.160;2023-01-29T08:49:42;100246.38;;;3.83;94.24
26531;BME280;14201;43.188;24.160;2023-01-29T08:52:07;100247.09;;;3.70;94.34
26531;BME280;14201;43.188;24.160;2023-01-29T08:54:32;100239.91;;;3.66;95.05
26531;BME280;14201;43.188;24.160;2023-01-29T08:56:58;100236.44;;;3.65;95.74
26531;BME280;14201;43.188;24.160;2023-01-29T08:59:23;100239.97;;;3.78;95.68
26531;BME280;14201;43.188;24.160;2023-01-29T09:01:48;100245.09;;;3.88;94.11
26531;BME280;14201;43.188;24.160;2023-01-29T09:04:14;100246.75;;;3.87;93.78
26531;BME280;14201;43.188;24.160;2023-01-29T09:06:39;100247.72;;;4.00;92.24
26531;BME280;14201;43.188;24.160;2023-01-29T09:09:05;100253.41;;;3.96;92.11
26531;BME280;14201;43.188;24.160;2023-01-29T09:11:30;100244.94;;;4.08;91.52
26531;BME280;14201;43.188;24.160;2023-01-29T09:13:55;100234.28;;;4.04;90.66
26531;BME280;14201;43.188;24.160;2023-01-29T09:16:21;100236.16;;;3.94;91.13
26531;BME280;14201;43.188;24.160;2023-01-29T09:18:46;100230.28;;;4.07;91.84
26531;BME280;14201;43.188;24.160;2023-01-29T09:21:12;100230.63;;;4.12;91.37
26531;BME280;14201;43.188;24.160;2023-01-29T09:23:37;100227.28;;;4.13;91.01
26531;BME280;14201;43.188;24.160;2023-01-29T09:26:03;100235.31;;;4.06;92.13
26531;BME280;14201;43.188;24.160;2023-01-29T09:28:28;100223.91;;;4.14;91.49
26531;BME280;14201;43.188;24.160;2023-01-29T09:30:53;100238.00;;;4.07;91.99
26531;BME280;14201;43.188;24.160;2023-01-29T09:33:19;100231.16;;;4.08;92.32
26531;BME280;14201;43.188;24.160;2023-01-29T09:35:44;100224.53;;;4.00;92.22
26531;BME280;14201;43.188;24.160;2023-01-29T09:38:11;100224.28;;;3.97;92.64
26531;BME280;14201;43.188;24.160;2023-01-29T09:40:44;100221.63;;;4.07;92.86
26531;BME280;14201;43.188;24.160;2023-01-29T09:43:15;100215.91;;;4.11;92.63
26531;BME280;14201;43.188;24.160;2023-01-29T09:45:48;100220.72;;;4.06;92.47
26531;BME280;14201;43.188;24.160;2023-01-29T09:48:14;100222.88;;;4.12;92.14
26531;BME280;14201;43.188;24.160;2023-01-29T09:50:40;100213.84;;;4.17;91.82
26531;BME280;14201;43.188;24.160;2023-01-29T09:55:38;100213.66;;;3.82;94.40
26531;BME280;14201;43.188;24.160;2023-01-29T09:58:10;100210.38;;;3.72;93.59
26531;BME280;14201;43.188;24.160;2023-01-29T10:10:50;100192.81;;;3.79;93.52
26531;BME280;14201;43.188;24.160;2023-01-29T10:23:26;100184.97;;;4.33;92.04
26531;BME280;14201;43.188;24.160;2023-01-29T10:25:53;100181.22;;;4.18;92.98
26531;BME280;14201;43.188;24.160;2023-01-29T10:28:20;100178.75;;;4.19;92.93
26531;BME280;14201;43.188;24.160;2023-01-29T10:30:50;100177.44;;;4.36;93.09
26531;BME280;14201;43.188;24.160;2023-01-29T10:33:29;100178.88;;;4.21;93.39
26531;BME280;14201;43.188;24.160;2023-01-29T10:36:02;100171.78;;;4.18;93.40
26531;BME280;14201;43.188;24.160;2023-01-29T10:41:07;100163.34;;;4.09;96.31
26531;BME280;14201;43.188;24.160;2023-01-29T10:56:45;100150.00;;;4.03;95.16
26531;BME280;14201;43.188;24.160;2023-01-29T11:01:40;100148.59;;;4.18;93.28
26531;BME280;14201;43.188;24.160;2023-01-29T11:04:08;100159.34;;;4.12;93.62
26531;BME280;14201;43.188;24.160;2023-01-29T11:06:36;100148.84;;;4.21;93.81
26531;BME280;14201;43.188;24.160;2023-01-29T11:11:34;100143.44;;;4.18;92.86
26531;BME280;14201;43.188;24.160;2023-01-29T11:14:04;100140.53;;;4.13;92.72
26531;BME280;14201;43.188;24.160;2023-01-29T11:16:40;100131.50;;;4.30;93.68
26531;BME280;14201;43.188;24.160;2023-01-29T11:19:05;100126.44;;;4.44;93.30
26531;BME280;14201;43.188;24.160;2023-01-29T11:21:31;100128.94;;;4.54;93.63
26531;BME280;14201;43.188;24.160;2023-01-29T11:24:06;100122.53;;;4.61;91.93
26531;BME280;14201;43.188;24.160;2023-01-29T11:26:36;100125.53;;;4.43;92.17
26531;BME280;14201;43.188;24.160;2023-01-29T11:29:03;100121.97;;;4.65;91.54
26531;BME280;14201;43.188;24.160;2023-01-29T11:31:33;100117.03;;;4.80;91.80
26531;BME280;14201;43.188;24.160;2023-01-29T11:36:45;100113.66;;;4.81;90.08
26531;BME280;14201;43.188;24.160;2023-01-29T11:39:13;100110.16;;;5.04;89.27
26531;BME280;14201;43.188;24.160;2023-01-29T11:44:17;100108.84;;;4.97;87.59
26531;BME280;14201;43.188;24.160;2023-01-29T11:46:43;100098.84;;;4.78;86.35
26531;BME280;14201;43.188;24.160;2023-01-29T11:49:11;100102.00;;;4.86;88.07
26531;BME280;14201;43.188;24.160;2023-01-29T11:51:43;100097.75;;;4.63;87.51
26531;BME280;14201;43.188;24.160;2023-01-29T11:54:15;100102.31;;;4.79;86.89
26531;BME280;14201;43.188;24.160;2023-01-29T11:56:42;100101.56;;;4.68;87.37
26531;BME280;14201;43.188;24.160;2023-01-29T12:01:52;100106.72;;;4.68;87.63
26531;BME280;14201;43.188;24.160;2023-01-29T12:04:19;100096.63;;;4.59;87.50
26531;BME280;14201;43.188;24.160;2023-01-29T12:06:46;100097.06;;;4.89;86.57
26531;BME280;14201;43.188;24.160;2023-01-29T12:09:15;100100.66;;;4.79;86.85
26531;BME280;14201;43.188;24.160;2023-01-29T12:11:41;100091.94;;;4.65;87.14
26531;BME280;14201;43.188;24.160;2023-01-29T12:19:39;100099.75;;;4.43;89.41
26531;BME280;14201;43.188;24.160;2023-01-29T12:32:11;100098.72;;;4.88;85.29
26531;BME280;14201;43.188;24.160;2023-01-29T12:34:53;100098.44;;;4.60;87.48
26531;BME280;14201;43.188;24.160;2023-01-29T12:42:38;100101.44;;;4.66;88.02
26531;BME280;14201;43.188;24.160;2023-01-29T12:45:06;100098.88;;;4.54;88.03
26531;BME280;14201;43.188;24.160;2023-01-29T12:47:39;100098.63;;;4.63;90.24
26531;BME280;14201;43.188;24.160;2023-01-29T12:50:13;100094.59;;;4.43;90.26
26531;BME280;14201;43.188;24.160;2023-01-29T12:52:42;100088.31;;;4.40;89.82
26531;BME280;14201;43.188;24.160;2023-01-29T12:55:21;100095.03;;;4.38;91.22
26531;BME280;14201;43.188;24.160;2023-01-29T12:57:55;100090.34;;;4.44;91.73
26531;BME280;14201;43.188;24.160;2023-01-29T13:00:22;100091.25;;;4.56;91.73
26531;BME280;14201;43.188;24.160;2023-01-29T13:08:02;100103.78;;;4.40;90.96
26531;BME280;14201;43.188;24.160;2023-01-29T13:10:31;100093.47;;;4.51;91.38
26531;BME280;14201;43.188;24.160;2023-01-29T13:13:01;100102.91;;;4.63;90.79
26531;BME280;14201;43.188;24.160;2023-01-29T13:17:55;100101.69;;;4.58;91.65
26531;BME280;14201;43.188;24.160;2023-01-29T13:22:48;100100.00;;;4.70;89.98
26531;BME280;14201;43.188;24.160;2023-01-29T13:25:14;100103.00;;;4.76;89.52
26531;BME280;14201;43.188;24.160;2023-01-29T13:27:41;100088.78;;;4.69;90.06
26531;BME280;14201;43.188;24.160;2023-01-29T13:30:07;100087.41;;;4.74;90.09
26531;BME280;14201;43.188;24.160;2023-01-29T13:32:33;100083.72;;;4.59;91.98
26531;BME280;14201;43.188;24.160;2023-01-29T13:35:00;100086.75;;;4.53;92.10
26531;BME280;14201;43.188;24.160;2023-01-29T13:37:34;100080.00;;;4.44;94.27
26531;BME280;14201;43.188;24.160;2023-01-29T13:40:00;100089.00;;;4.49;92.67
26531;BME280;14201;43.188;24.160;2023-01-29T13:42:45;100083.59;;;4.46;92.16
26531;BME280;14201;43.188;24.160;2023-01-29T13:45:19;100084.16;;;4.53;91.42
26531;BME280;14201;43.188;24.160;2023-01-29T13:47:45;100092.38;;;4.48;90.36
26531;BME280;14201;43.188;24.160;2023-01-29T13:52:41;100088.88;;;4.71;91.32
26531;BME280;14201;43.188;24.160;2023-01-29T14:00:46;100090.81;;;4.62;91.34
26531;BME280;14201;43.188;24.160;2023-01-29T14:10:26;100100.66;;;4.79;88.52
26531;BME280;14201;43.188;24.160;2023-01-29T14:12:55;100104.38;;;4.83;88.84
26531;BME280;14201;43.188;24.160;2023-01-29T14:15:38;100106.28;;;4.73;89.04
26531;BME280;14201;43.188;24.160;2023-01-29T14:23:32;100101.44;;;4.66;90.34
26531;BME280;14201;43.188;24.160;2023-01-29T14:26:05;100104.72;;;4.64;90.49
26531;BME280;14201;43.188;24.160;2023-01-29T14:28:45;100107.16;;;4.62;90.64
26531;BME280;14201;43.188;24.160;2023-01-29T14:31:26;100104.34;;;4.59;89.60
26531;BME280;14201;43.188;24.160;2023-01-29T14:33:52;100111.88;;;4.68;90.96
26531;BME280;14201;43.188;24.160;2023-01-29T14:36:17;100112.88;;;4.82;90.92
26531;BME280;14201;43.188;24.160;2023-01-29T14:38:46;100107.84;;;4.83;90.56
26531;BME280;14201;43.188;24.160;2023-01-29T14:43:39;100114.69;;;4.95;89.96
26531;BME280;14201;43.188;24.160;2023-01-29T14:49:01;100119.72;;;4.93;89.80
26531;BME280;14201;43.188;24.160;2023-01-29T14:51:31;100117.91;;;5.04;88.99
26531;BME280;14201;43.188;24.160;2023-01-29T14:54:03;100122.72;;;5.11;88.41
26531;BME280;14201;43.188;24.160;2023-01-29T14:56:38;100126.66;;;5.18;87.91
26531;BME280;14201;43.188;24.160;2023-01-29T15:01:52;100131.81;;;5.18;87.17
26531;BME280;14201;43.188;24.160;2023-01-29T15:07:04;100123.13;;;5.29;86.41
26531;BME280;14201;43.188;24.160;2023-01-29T15:12:22;100120.16;;;5.11;87.54
26531;BME280;14201;43.188;24.160;2023-01-29T15:17:31;100123.03;;;5.16;87.24
26531;BME280;14201;43.188;24.160;2023-01-29T15:19:58;100116.75;;;5.24;87.42
26531;BME280;14201;43.188;24.160;2023-01-29T15:22:23;100124.25;;;5.32;88.41
26531;BME280;14201;43.188;24.160;2023-01-29T15:25:01;100124.94;;;5.30;88.35
26531;BME280;14201;43.188;24.160;2023-01-29T15:27:27;100115.19;;;5.26;87.78
26531;BME280;14201;43.188;24.160;2023-01-29T15:29:56;100119.66;;;5.28;87.44
26531;BME280;14201;43.188;24.160;2023-01-29T15:32:27;100117.88;;;5.16;87.98
26531;BME280;14201;43.188;24.160;2023-01-29T15:34:55;100125.31;;;5.11;88.47
26531;BME280;14201;43.188;24.160;2023-01-29T15:37:25;100117.69;;;5.12;88.90
26531;BME280;14201;43.188;24.160;2023-01-29T15:39:51;100122.38;;;5.18;88.50
26531;BME280;14201;43.188;24.160;2023-01-29T15:42:17;100123.28;;;5.19;87.94
26531;BME280;14201;43.188;24.160;2023-01-29T15:44:47;100125.97;;;5.20;87.97
26531;BME280;14201;43.188;24.160;2023-01-29T15:47:13;100134.41;;;5.18;88.15
26531;BME280;14201;43.188;24.160;2023-01-29T15:49:39;100119.91;;;5.20;87.38
26531;BME280;14201;43.188;24.160;2023-01-29T15:52:13;100128.63;;;5.33;85.28
26531;BME280;14201;43.188;24.160;2023-01-29T15:54:40;100120.78;;;5.32;84.49